createdAt,value
2023-01-07T00:01:11.165Z,10.10
2023-01-07T00:11:20.327Z,9.20
2023-01-07T00:21:29.178Z,12.50
2023-01-07T00:31:39.527Z,10.90
2023-01-07T00:42:01.951Z,10.10
2023-01-07T00:52:09.331Z,8.70
2023-01-07T01:02:16.508Z,9.60
2023-01-07T01:12:23.587Z,12.20
2023-01-07T01:22:31.330Z,16.30
2023-01-07T01:32:38.406Z,13.50
2023-01-07T01:42:45.447Z,14.30
2023-01-07T01:52:54.000Z,13.30
2023-01-07T02:03:03.020Z,11.40
2023-01-07T02:13:17.120Z,14.10
2023-01-07T02:23:55.011Z,13.30
2023-01-07T02:34:04.721Z,13.00
2023-01-07T02:44:22.955Z,16.20
2023-01-07T02:54:32.204Z,14.20
2023-01-07T03:04:42.420Z,13.50
2023-01-07T03:14:50.917Z,12.90
2023-01-07T03:25:01.463Z,13.10
2023-01-07T03:35:08.291Z,15.50
2023-01-07T03:45:15.904Z,17.30
2023-01-07T03:55:23.151Z,26.50
2023-01-07T04:05:30.537Z,36.40
2023-01-07T04:15:37.521Z,46.10
2023-01-07T04:25:47.485Z,34.00
2023-01-07T04:35:54.585Z,25.90
2023-01-07T04:46:01.703Z,31.70
2023-01-07T04:56:10.266Z,26.90
2023-01-07T05:06:16.519Z,28.40
2023-01-07T05:16:23.741Z,29.10
2023-01-07T05:26:31.762Z,23.50
2023-01-07T05:36:38.807Z,36.40
2023-01-07T05:46:46.728Z,38.30
2023-01-07T05:56:53.833Z,34.30
2023-01-07T06:07:00.903Z,28.90
2023-01-07T06:17:08.197Z,26.60
2023-01-07T06:27:15.540Z,22.90
2023-01-07T06:37:22.557Z,27.30
2023-01-07T06:47:29.485Z,20.00
2023-01-07T06:57:37.002Z,21.40
2023-01-07T07:17:50.776Z,24.20
2023-01-07T07:27:57.745Z,26.50
2023-01-07T07:38:05.185Z,33.50
2023-01-07T07:48:14.075Z,46.70
2023-01-07T07:58:21.012Z,45.80
2023-01-07T08:08:28.191Z,46.50
2023-01-07T08:18:34.633Z,39.80
2023-01-07T08:28:41.919Z,49.40
2023-01-07T08:38:51.495Z,50.60
2023-01-07T08:59:04.622Z,45.10
2023-01-07T09:09:14.671Z,44.50
2023-01-07T09:19:21.836Z,44.10
2023-01-07T09:29:28.879Z,52.90
2023-01-07T09:39:36.004Z,32.90
2023-01-07T09:49:46.754Z,30.90
2023-01-07T09:59:53.772Z,28.60
2023-01-07T10:10:02.622Z,31.40
2023-01-07T10:20:15.356Z,27.00
2023-01-07T10:30:23.272Z,20.30
2023-01-07T10:40:30.710Z,24.70
2023-01-07T10:50:49.385Z,24.80
2023-01-07T11:00:56.649Z,23.10
2023-01-07T11:11:04.854Z,19.40
2023-01-07T11:21:42.639Z,18.10
2023-01-07T11:31:47.346Z,17.80
2023-01-07T11:41:55.754Z,15.70
2023-01-07T11:52:03.016Z,17.10
2023-01-07T12:02:15.201Z,20.30
2023-01-07T12:12:34.923Z,14.80
2023-01-07T12:22:42.353Z,11.00
2023-01-07T12:32:48.284Z,16.80
2023-01-07T12:42:57.142Z,13.50
2023-01-07T12:53:04.610Z,14.20
2023-01-07T13:03:11.737Z,13.20
2023-01-07T13:13:16.979Z,15.80
2023-01-07T13:23:26.218Z,14.90
2023-01-07T13:33:43.998Z,22.70
2023-01-07T13:44:06.540Z,20.30
2023-01-07T13:54:14.189Z,23.10
2023-01-07T14:04:37.456Z,33.70
2023-01-07T14:14:43.314Z,34.90
2023-01-07T14:25:01.694Z,48.70
2023-01-07T14:35:23.331Z,45.80
2023-01-07T14:45:52.573Z,49.20
2023-01-07T14:56:14.014Z,54.70
2023-01-07T15:06:30.191Z,66.70
2023-01-07T15:16:39.213Z,69.80
2023-01-07T15:26:45.191Z,83.60
2023-01-07T15:36:53.905Z,80.30
2023-01-07T15:47:01.566Z,94.40
2023-01-07T15:57:16.105Z,95.00
2023-01-07T16:07:22.723Z,111.30
2023-01-07T16:17:30.051Z,142.10
2023-01-07T16:27:39.691Z,158.20
2023-01-07T16:37:48.303Z,128.20
2023-01-07T16:48:21.784Z,108.20
2023-01-07T16:58:30.555Z,106.30
2023-01-07T17:08:40.410Z,112.10
2023-01-07T17:18:47.920Z,112.80
2023-01-07T17:28:57.735Z,107.10
2023-01-07T17:39:05.157Z,99.10
2023-01-07T17:49:12.464Z,163.30
2023-01-07T17:59:21.883Z,150.00
2023-01-07T18:09:29.192Z,168.70
2023-01-07T18:19:36.827Z,120.40
2023-01-07T18:29:44.111Z,123.50
2023-01-07T18:39:51.238Z,107.80
2023-01-07T18:49:59.108Z,108.20
2023-01-07T19:00:07.971Z,94.90
2023-01-07T19:10:15.077Z,85.00
2023-01-07T19:20:22.420Z,92.60
2023-01-07T19:30:29.673Z,92.10
2023-01-07T19:40:37.052Z,106.30
2023-01-07T19:50:46.357Z,112.90
2023-01-07T20:00:53.685Z,117.40
2023-01-07T20:11:03.580Z,133.10
2023-01-07T20:21:10.972Z,125.30
2023-01-07T20:31:21.248Z,139.30
2023-01-07T20:41:29.271Z,138.00
2023-01-07T20:51:37.162Z,120.60
2023-01-07T21:01:44.522Z,108.90
2023-01-07T21:11:52.075Z,124.60
2023-01-07T21:22:00.616Z,103.20
2023-01-07T21:32:05.397Z,102.20
2023-01-07T21:42:12.639Z,95.00
2023-01-07T21:52:20.762Z,99.30
2023-01-07T22:02:28.119Z,94.30
2023-01-07T22:12:35.937Z,95.20
2023-01-07T22:22:44.359Z,87.00
2023-01-07T22:32:51.421Z,66.60
2023-01-07T22:43:04.200Z,70.40
2023-01-07T22:53:11.081Z,73.40
2023-01-07T23:03:18.910Z,63.20
2023-01-07T23:13:26.897Z,70.00
2023-01-07T23:23:33.021Z,58.30
2023-01-07T23:33:40.060Z,65.40
2023-01-07T23:43:47.336Z,75.60
2023-01-07T23:53:54.388Z,76.70
